createdAt,value
2019-06-27T00:00:01.899Z,18.34
2019-06-27T00:05:05.870Z,18.44
2019-06-27T00:10:09.736Z,19.25
2019-06-27T00:15:14.877Z,19.93
2019-06-27T00:20:18.163Z,20.05
2019-06-27T00:25:21.778Z,20.35
2019-06-27T00:30:25.317Z,20.46
2019-06-27T00:42:19.652Z,19.19
2019-06-27T00:47:22.595Z,19.97
2019-06-27T00:52:25.587Z,19.37
2019-06-27T00:57:29.285Z,19.50
2019-06-27T01:02:32.186Z,19.58
2019-06-27T01:07:35.099Z,19.84
2019-06-27T01:12:38.356Z,20.24
2019-06-27T01:17:41.284Z,20.13
2019-06-27T01:22:44.252Z,20.25
2019-06-27T01:27:47.029Z,19.49
2019-06-27T01:32:50.290Z,19.11
2019-06-27T01:37:53.611Z,19.27
2019-06-27T01:42:56.858Z,19.61
2019-06-27T01:48:00.399Z,19.72
2019-06-27T01:53:03.016Z,19.88
2019-06-27T01:58:07.141Z,19.45
2019-06-27T02:03:12.354Z,20.15
2019-06-27T02:08:15.845Z,20.09
2019-06-27T02:13:19.430Z,20.32
2019-06-27T02:18:23.006Z,19.51
2019-06-27T02:23:26.058Z,20.16
2019-06-27T02:28:29.347Z,20.05
2019-06-27T02:33:31.957Z,19.94
2019-06-27T02:38:35.285Z,19.97
2019-06-27T02:43:38.884Z,19.82
2019-06-27T02:48:42.167Z,19.79
2019-06-27T02:53:45.479Z,19.46
2019-06-27T02:58:51.131Z,18.88
2019-06-27T03:03:54.450Z,19.01
2019-06-27T03:08:57.765Z,18.45
2019-06-27T03:14:00.330Z,18.56
2019-06-27T03:19:04.075Z,18.40
2019-06-27T03:24:07.300Z,18.78
2019-06-27T03:29:10.829Z,18.95
2019-06-27T03:34:14.023Z,18.54
2019-06-27T03:39:17.334Z,18.98
2019-06-27T03:44:20.600Z,18.55
2019-06-27T03:49:23.775Z,19.15
2019-06-27T03:54:27.024Z,18.76
2019-06-27T03:59:30.620Z,18.98
2019-06-27T04:04:33.999Z,18.98
2019-06-27T04:09:37.115Z,18.90
2019-06-27T04:14:40.799Z,19.06
2019-06-27T04:19:44.465Z,19.45
2019-06-27T04:24:47.761Z,18.66
2019-06-27T04:29:51.071Z,17.51
2019-06-27T04:34:53.976Z,17.45
2019-06-27T04:39:57.495Z,17.26
2019-06-27T04:45:01.056Z,16.83
2019-06-27T04:55:07.370Z,17.19
2019-06-27T05:00:14.956Z,16.95
2019-06-27T05:05:18.246Z,16.85
2019-06-27T05:10:21.903Z,16.86
2019-06-27T05:15:25.488Z,17.07
2019-06-27T05:20:28.797Z,16.96
2019-06-27T05:25:31.776Z,17.12
2019-06-27T05:30:34.706Z,16.73
2019-06-27T05:35:38.028Z,16.56
2019-06-27T05:40:41.295Z,16.61
2019-06-27T05:45:44.499Z,16.89
2019-06-27T05:50:47.712Z,17.10
2019-06-27T05:55:51.015Z,17.08
2019-06-27T06:00:54.387Z,17.52
2019-06-27T06:05:57.097Z,17.41
2019-06-27T06:11:00.397Z,17.58
2019-06-27T06:16:03.609Z,17.41
2019-06-27T06:21:06.508Z,17.44
2019-06-27T06:26:09.476Z,17.69
2019-06-27T06:31:13.132Z,18.04
2019-06-27T06:36:16.444Z,17.85
2019-06-27T06:41:19.684Z,17.61
2019-06-27T06:46:22.940Z,17.68
2019-06-27T06:51:25.558Z,17.81
2019-06-27T06:56:30.418Z,17.97
2019-06-27T07:01:33.669Z,18.12
2019-06-27T07:06:36.886Z,17.94
2019-06-27T07:11:40.292Z,18.21
2019-06-27T07:16:43.639Z,18.43
2019-06-27T07:21:47.228Z,18.15
2019-06-27T07:26:50.482Z,18.61
2019-06-27T07:31:54.962Z,18.82
2019-06-27T07:37:01.044Z,18.48
2019-06-27T07:42:04.648Z,18.26
2019-06-27T07:47:07.574Z,18.29
2019-06-27T07:52:10.937Z,18.40
2019-06-27T07:57:14.514Z,18.84
2019-06-27T08:02:17.740Z,18.89
2019-06-27T08:07:21.438Z,19.10
2019-06-27T08:12:25.247Z,19.06
2019-06-27T08:17:28.857Z,19.23
2019-06-27T08:22:31.800Z,19.00
2019-06-27T08:27:35.169Z,18.85
2019-06-27T08:32:38.767Z,18.56
2019-06-27T08:37:42.054Z,18.43
2019-06-27T08:42:45.697Z,18.62
2019-06-27T08:47:49.023Z,18.68
2019-06-27T08:52:52.314Z,18.98
2019-06-27T08:57:55.704Z,18.40
2019-06-27T09:02:58.963Z,18.85
2019-06-27T09:08:02.638Z,18.78
2019-06-27T09:13:05.553Z,19.23
2019-06-27T09:18:09.980Z,19.02
2019-06-27T09:23:41.539Z,19.04
2019-06-27T09:29:04.286Z,18.83
2019-06-27T09:34:23.970Z,18.70
2019-06-27T09:39:51.433Z,18.93
2019-06-27T09:45:28.644Z,18.87
2019-06-27T09:51:03.326Z,19.05
2019-06-27T09:56:13.244Z,19.37
2019-06-27T10:01:48.694Z,19.33
2019-06-27T10:07:23.187Z,19.74
2019-06-27T10:12:58.157Z,19.59
2019-06-27T10:18:15.497Z,19.60
2019-06-27T10:23:50.814Z,19.93
2019-06-27T10:29:26.133Z,20.02
2019-06-27T10:34:56.037Z,20.22
2019-06-27T10:40:31.727Z,20.37
2019-06-27T10:45:46.091Z,20.18
2019-06-27T10:50:57.105Z,20.45
2019-06-27T10:56:01.172Z,20.35
2019-06-27T11:01:05.193Z,20.04
2019-06-27T11:06:08.128Z,20.35
2019-06-27T11:11:12.295Z,20.16
2019-06-27T11:16:16.017Z,20.39
2019-06-27T11:21:21.386Z,20.04
2019-06-27T11:26:24.131Z,20.33
2019-06-27T11:31:27.311Z,20.43
2019-06-27T11:36:30.558Z,20.76
2019-06-27T11:41:34.096Z,20.41
2019-06-27T11:46:36.674Z,20.78
2019-06-27T11:51:40.243Z,20.69
2019-06-27T11:56:43.614Z,20.45
2019-06-27T12:01:46.921Z,20.78
2019-06-27T12:06:50.066Z,20.74
2019-06-27T12:11:52.283Z,20.29
2019-06-27T12:16:54.816Z,20.03
2019-06-27T12:21:58.121Z,20.14
2019-06-27T12:27:01.445Z,20.50
2019-06-27T12:32:05.062Z,20.38
2019-06-27T12:37:08.634Z,20.66
2019-06-27T12:42:12.198Z,20.38
2019-06-27T12:47:15.514Z,19.90
2019-06-27T12:52:19.071Z,20.03
2019-06-27T12:57:22.135Z,19.62
2019-06-27T13:02:25.719Z,20.13
2019-06-27T13:07:28.825Z,20.53
2019-06-27T13:12:32.423Z,19.96
2019-06-27T13:17:35.657Z,20.40
2019-06-27T13:22:39.335Z,21.71
2019-06-27T13:27:42.511Z,21.48
2019-06-27T13:32:46.137Z,21.52
2019-06-27T13:37:49.688Z,21.05
2019-06-27T13:42:55.631Z,21.40
2019-06-27T13:47:58.868Z,21.04
2019-06-27T13:53:02.162Z,21.37
2019-06-27T13:58:05.138Z,22.05
2019-06-27T14:03:07.977Z,22.12
2019-06-27T14:08:11.389Z,22.34
2019-06-27T14:13:14.759Z,22.67
2019-06-27T14:18:21.112Z,21.91
2019-06-27T14:23:24.675Z,21.77
2019-06-27T14:28:27.925Z,22.15
2019-06-27T14:33:30.913Z,23.70
2019-06-27T14:38:33.964Z,22.18
2019-06-27T14:43:38.016Z,21.83
2019-06-27T14:48:41.138Z,21.96
2019-06-27T14:53:44.653Z,23.45
2019-06-27T14:58:47.925Z,23.80
2019-06-27T15:03:51.311Z,23.70
2019-06-27T15:08:55.117Z,23.98
2019-06-27T15:13:58.392Z,24.11
2019-06-27T15:19:01.981Z,23.54
2019-06-27T15:24:06.277Z,22.03
2019-06-27T15:29:09.501Z,22.45
2019-06-27T15:34:13.078Z,22.67
2019-06-27T15:39:16.019Z,22.66
2019-06-27T15:44:20.734Z,21.52
2019-06-27T15:49:23.773Z,21.70
2019-06-27T15:54:27.027Z,21.56
2019-06-27T15:59:30.668Z,21.14
2019-06-27T16:04:34.806Z,21.18
2019-06-27T16:09:39.196Z,21.77
2019-06-27T16:14:43.014Z,22.62
2019-06-27T16:19:45.958Z,22.77
2019-06-27T16:24:49.609Z,22.51
2019-06-27T16:29:53.136Z,22.73
2019-06-27T16:34:56.668Z,23.04
2019-06-27T16:39:59.664Z,23.51
2019-06-27T16:45:03.471Z,23.10
2019-06-27T16:50:07.587Z,22.84
2019-06-27T16:55:13.080Z,22.15
2019-06-27T17:00:17.245Z,21.71
2019-06-27T17:05:21.158Z,21.94
2019-06-27T17:10:24.044Z,22.04
2019-06-27T17:15:27.677Z,22.70
2019-06-27T17:20:31.212Z,22.55
2019-06-27T17:25:34.520Z,21.65
2019-06-27T17:30:37.604Z,21.03
2019-06-27T17:35:40.929Z,21.42
2019-06-27T17:40:44.428Z,20.90
2019-06-27T17:45:47.668Z,20.99
2019-06-27T17:50:51.257Z,20.79
2019-06-27T17:55:54.828Z,20.47
2019-06-27T18:00:58.656Z,20.39
2019-06-27T18:06:02.216Z,20.71
2019-06-27T18:11:05.801Z,19.94
2019-06-27T18:16:08.959Z,20.08
2019-06-27T18:21:12.012Z,20.02
2019-06-27T18:26:15.293Z,19.57
2019-06-27T18:31:18.381Z,19.70
2019-06-27T18:36:22.071Z,19.45
2019-06-27T18:41:25.641Z,19.55
2019-06-27T18:46:28.982Z,19.47
2019-06-27T18:51:32.454Z,18.91
2019-06-27T18:56:35.870Z,18.86
2019-06-27T19:01:38.844Z,18.74
2019-06-27T19:06:41.434Z,18.52
2019-06-27T19:11:45.180Z,18.61
2019-06-27T19:16:48.604Z,18.13
2019-06-27T19:21:59.899Z,18.14
2019-06-27T19:27:03.529Z,18.26
2019-06-27T19:32:06.934Z,18.11
2019-06-27T19:37:13.753Z,18.03
2019-06-27T19:42:17.722Z,18.19
2019-06-27T19:47:23.145Z,17.90
2019-06-27T20:08:35.909Z,17.75
2019-06-27T20:31:26.456Z,17.52
2019-06-27T21:29:07.031Z,16.81
2019-06-27T21:34:10.241Z,16.87
2019-06-27T21:39:13.882Z,16.85
2019-06-27T21:44:17.282Z,16.74
2019-06-27T21:49:20.557Z,16.57
2019-06-27T21:54:23.873Z,16.57
2019-06-27T21:59:27.158Z,16.52
2019-06-27T22:04:30.718Z,16.57
2019-06-27T22:09:34.355Z,16.35
2019-06-27T22:14:36.981Z,16.37
2019-06-27T22:19:40.377Z,16.34
2019-06-27T22:24:44.022Z,16.24
2019-06-27T22:29:46.995Z,16.38
2019-06-27T22:34:50.233Z,16.30
2019-06-27T22:40:11.951Z,16.35
2019-06-27T22:45:33.597Z,16.26
2019-06-27T22:51:01.781Z,16.29
2019-06-27T22:56:05.408Z,16.17
2019-06-27T23:01:08.639Z,16.12
2019-06-27T23:06:12.146Z,16.11
2019-06-27T23:11:15.761Z,16.13
2019-06-27T23:16:19.189Z,16.21
2019-06-27T23:21:22.418Z,16.17
2019-06-27T23:26:27.090Z,15.96
2019-06-27T23:31:30.551Z,15.66
2019-06-27T23:36:33.131Z,15.75
2019-06-27T23:41:36.097Z,15.84
2019-06-27T23:46:41.081Z,15.75
2019-06-27T23:51:46.140Z,15.78
2019-06-27T23:56:49.098Z,15.66
